Time;durP1;ratioP1;P1;durP2;ratioP2;P2;SDS_P1;SDS_P2;PMS_P1;PMS_P2;Temp;Humidity;BMP_temperature;BMP_pressure;BME280_temperature;BME280_humidity;BME280_pressure;Samples;Min_cycle;Max_cycle;Signal;HPM_P1;HPM_P2
2024/01/31 00:00:51;;;;;;;10.32;9.25;;;12.00;97.50;;;;;;927628;151;27778;-83
2024/01/31 00:03:18;;;;;;;10.23;9.30;;;12.00;97.80;;;;;;927457;152;27598;-83
2024/01/31 00:05:44;;;;;;;9.90;9.00;;;11.90;98.20;;;;;;927579;151;27393;-83
2024/01/31 00:08:11;;;;;;;10.93;9.33;;;11.90;98.60;;;;;;927566;151;27280;-83
2024/01/31 00:10:38;;;;;;;11.07;9.27;;;11.90;98.90;;;;;;927652;153;27353;-83
2024/01/31 00:13:04;;;;;;;10.33;8.23;;;11.80;99.30;;;;;;927522;151;27284;-83
2024/01/31 00:15:31;;;;;;;8.93;7.97;;;11.80;99.60;;;;;;927198;151;27304;-83
2024/01/31 00:17:58;;;;;;;9.97;8.90;;;11.80;99.80;;;;;;927681;151;27385;-83
2024/01/31 00:20:24;;;;;;;10.68;9.55;;;11.80;99.90;;;;;;927881;151;27432;-82
2024/01/31 00:22:50;;;;;;;11.77;9.20;;;11.80;99.90;;;;;;927229;151;27455;-83
2024/01/31 00:25:17;;;;;;;10.97;9.00;;;11.80;99.90;;;;;;927408;151;27296;-87
2024/01/31 00:27:44;;;;;;;9.67;8.63;;;11.80;99.90;;;;;;928145;151;27392;-85
2024/01/31 00:30:10;;;;;;;10.28;8.98;;;11.80;99.90;;;;;;928003;151;27424;-84
2024/01/31 00:32:37;;;;;;;11.80;9.80;;;11.80;99.90;;;;;;928004;151;27339;-87
2024/01/31 00:35:04;;;;;;;11.18;9.78;;;11.80;99.90;;;;;;927362;151;27300;-83
2024/01/31 00:37:30;;;;;;;15.20;9.47;;;11.90;99.90;;;;;;927747;149;27389;-83
2024/01/31 00:39:57;;;;;;;11.68;9.15;;;11.90;99.90;;;;;;927886;151;27396;-83
2024/01/31 00:42:23;;;;;;;10.40;9.18;;;11.90;99.90;;;;;;927564;151;27358;-83
2024/01/31 00:44:50;;;;;;;10.55;8.75;;;11.90;99.90;;;;;;927148;153;27309;-83
2024/01/31 00:47:16;;;;;;;11.10;9.30;;;11.90;99.90;;;;;;927818;151;27393;-83
2024/01/31 00:49:43;;;;;;;10.63;9.13;;;11.90;99.90;;;;;;927517;151;27408;-83
2024/01/31 00:52:10;;;;;;;10.53;9.13;;;11.90;99.90;;;;;;927824;151;27446;-83
2024/01/31 00:54:36;;;;;;;13.20;9.53;;;11.90;99.90;;;;;;927164;151;28444;-83
2024/01/31 00:57:03;;;;;;;9.07;8.13;;;11.90;99.90;;;;;;927327;151;27451;-83
2024/01/31 00:59:30;;;;;;;9.57;8.50;;;11.90;99.90;;;;;;927861;151;27331;-83
2024/01/31 01:01:56;;;;;;;10.50;9.40;;;11.80;99.90;;;;;;927522;152;27976;-83
2024/01/31 01:04:23;;;;;;;11.87;9.63;;;11.90;99.90;;;;;;927823;151;27353;-83
2024/01/31 01:06:49;;;;;;;10.57;8.80;;;11.80;99.90;;;;;;927436;153;27315;-83
2024/01/31 01:09:16;;;;;;;10.57;9.47;;;11.80;99.90;;;;;;927425;151;27320;-83
2024/01/31 01:11:42;;;;;;;11.13;9.67;;;11.80;99.90;;;;;;927738;151;27296;-84
2024/01/31 01:14:09;;;;;;;10.60;9.15;;;11.80;99.90;;;;;;927724;151;27459;-83
2024/01/31 01:16:36;;;;;;;10.10;9.00;;;11.80;99.90;;;;;;927823;153;27362;-83
2024/01/31 01:19:04;;;;;;;10.47;9.47;;;11.80;99.90;;;;;;927370;151;27251;-83
2024/01/31 01:21:29;;;;;;;10.77;9.30;;;11.80;99.90;;;;;;927642;150;27327;-83
2024/01/31 01:23:55;;;;;;;9.68;8.78;;;11.70;99.90;;;;;;927570;153;27440;-83
2024/01/31 01:26:22;;;;;;;9.35;8.03;;;11.70;99.90;;;;;;927284;151;27419;-83
2024/01/31 01:28:48;;;;;;;11.63;9.40;;;11.70;99.90;;;;;;927483;153;27278;-82
2024/01/31 01:31:15;;;;;;;9.80;8.85;;;11.70;99.90;;;;;;927796;149;27338;-83
2024/01/31 01:33:42;;;;;;;10.87;8.43;;;11.70;99.90;;;;;;927396;151;27359;-83
2024/01/31 01:36:08;;;;;;;10.23;9.23;;;11.60;99.90;;;;;;927589;153;27371;-83
2024/01/31 01:38:36;;;;;;;10.72;9.60;;;11.60;99.90;;;;;;927507;153;27303;-83
2024/01/31 01:41:02;;;;;;;10.48;9.10;;;11.60;99.90;;;;;;927115;153;27292;-83
2024/01/31 01:43:28;;;;;;;9.33;8.30;;;11.60;99.90;;;;;;927401;150;27377;-83
2024/01/31 01:46:10;;;;;;;10.38;9.25;;;11.60;99.90;;;;;;927447;151;27444;-84
2024/01/31 01:48:36;;;;;;;10.33;9.23;;;11.60;99.90;;;;;;926774;151;27397;-83
2024/01/31 01:51:02;;;;;;;10.37;9.17;;;11.60;99.90;;;;;;927477;152;27347;-82
2024/01/31 01:53:29;;;;;;;9.83;8.50;;;11.60;99.90;;;;;;927495;152;27358;-82
2024/01/31 01:55:56;;;;;;;10.40;9.40;;;11.60;99.90;;;;;;927378;153;27350;-83
2024/01/31 01:58:22;;;;;;;10.00;8.77;;;11.60;99.90;;;;;;927403;153;27275;-83
2024/01/31 02:00:49;;;;;;;12.93;10.10;;;11.60;99.90;;;;;;927370;152;27256;-82
2024/01/31 02:03:15;;;;;;;10.33;9.07;;;11.50;99.90;;;;;;927527;153;27323;-82
2024/01/31 02:05:42;;;;;;;11.23;9.00;;;11.50;99.90;;;;;;927056;151;27431;-83
2024/01/31 02:08:09;;;;;;;10.97;9.80;;;11.50;99.90;;;;;;927186;151;27271;-83
2024/01/31 02:10:35;;;;;;;10.50;9.43;;;11.50;99.90;;;;;;927848;151;27324;-82
2024/01/31 02:13:02;;;;;;;9.97;8.80;;;11.50;99.90;;;;;;927224;151;27280;-83
2024/01/31 02:15:28;;;;;;;10.97;9.20;;;11.50;99.90;;;;;;927790;149;27338;-83
2024/01/31 02:17:55;;;;;;;10.40;8.57;;;11.50;99.90;;;;;;927701;153;27359;-83
2024/01/31 02:20:22;;;;;;;10.67;9.53;;;11.40;99.90;;;;;;927400;150;27401;-84
2024/01/31 02:22:48;;;;;;;10.03;9.00;;;11.50;99.90;;;;;;927559;151;27403;-83
2024/01/31 02:25:15;;;;;;;11.03;9.30;;;11.50;99.90;;;;;;927518;151;27347;-82
2024/01/31 02:27:41;;;;;;;10.70;9.13;;;11.40;99.90;;;;;;928677;151;27375;-83
2024/01/31 02:30:08;;;;;;;10.17;9.07;;;11.40;99.90;;;;;;929064;154;27300;-83
2024/01/31 02:32:34;;;;;;;10.43;9.40;;;11.40;99.90;;;;;;929104;154;27279;-83
2024/01/31 02:35:01;;;;;;;9.83;8.87;;;11.40;99.90;;;;;;928975;151;27353;-82
2024/01/31 02:37:28;;;;;;;9.73;8.73;;;11.40;99.90;;;;;;928858;154;27696;-83
2024/01/31 02:39:54;;;;;;;14.07;9.70;;;11.40;99.90;;;;;;928912;154;27402;-83
2024/01/31 02:42:21;;;;;;;9.57;8.67;;;11.40;99.90;;;;;;928685;151;27272;-83
2024/01/31 02:44:47;;;;;;;10.10;9.10;;;11.40;99.90;;;;;;928737;151;27330;-82
2024/01/31 02:47:14;;;;;;;10.37;9.07;;;11.40;99.90;;;;;;929093;154;27420;-80
2024/01/31 02:49:41;;;;;;;9.80;8.67;;;11.40;99.90;;;;;;928749;154;27446;-80
2024/01/31 02:52:07;;;;;;;9.70;8.70;;;11.40;99.90;;;;;;928630;151;27371;-79
2024/01/31 02:54:34;;;;;;;10.10;8.37;;;11.40;99.90;;;;;;929019;151;27335;-80
2024/01/31 02:57:00;;;;;;;12.13;10.07;;;11.40;99.90;;;;;;929031;151;27400;-81
2024/01/31 02:59:27;;;;;;;10.70;9.60;;;11.40;99.90;;;;;;929107;154;27358;-81
2024/01/31 03:01:54;;;;;;;10.83;8.47;;;11.40;99.90;;;;;;928250;151;27262;-82
2024/01/31 03:04:20;;;;;;;10.63;9.53;;;11.40;99.90;;;;;;928755;151;27389;-82
2024/01/31 03:06:47;;;;;;;10.40;9.40;;;11.40;99.90;;;;;;928552;152;27436;-82
2024/01/31 03:09:13;;;;;;;9.00;8.13;;;11.30;99.90;;;;;;928720;151;27487;-82
2024/01/31 03:11:40;;;;;;;9.33;8.43;;;11.30;99.90;;;;;;928942;151;27346;-81
2024/01/31 03:14:06;;;;;;;9.10;8.20;;;11.30;99.90;;;;;;928107;151;27311;-82
2024/01/31 03:16:33;;;;;;;8.73;7.70;;;11.30;99.90;;;;;;928618;154;27374;-81
2024/01/31 03:19:00;;;;;;;10.00;9.00;;;11.20;99.90;;;;;;929126;151;27378;-82
2024/01/31 03:21:26;;;;;;;9.43;8.03;;;11.20;99.90;;;;;;928858;151;27334;-82
2024/01/31 03:23:53;;;;;;;8.97;8.07;;;11.10;99.90;;;;;;928710;151;27318;-81
2024/01/31 03:26:19;;;;;;;8.67;7.83;;;11.10;99.90;;;;;;928734;151;27346;-81
2024/01/31 03:28:46;;;;;;;8.37;7.57;;;11.10;99.90;;;;;;928092;148;27435;-82
2024/01/31 03:31:13;;;;;;;10.63;8.33;;;11.10;99.90;;;;;;927690;151;27351;-81
2024/01/31 03:33:39;;;;;;;9.50;7.87;;;11.10;99.90;;;;;;926944;151;27283;-81
2024/01/31 03:36:06;;;;;;;8.77;7.97;;;11.00;99.90;;;;;;927527;153;27260;-82
2024/01/31 03:38:32;;;;;;;8.33;7.57;;;11.00;99.90;;;;;;927412;150;27392;-82
2024/01/31 03:40:59;;;;;;;9.47;8.40;;;11.00;99.90;;;;;;927852;151;27355;-82
2024/01/31 03:43:26;;;;;;;8.97;8.13;;;11.00;99.90;;;;;;926901;151;27326;-81
2024/01/31 03:45:52;;;;;;;9.60;8.57;;;11.00;99.90;;;;;;927308;151;27369;-81
2024/01/31 03:48:19;;;;;;;9.57;8.57;;;10.90;99.90;;;;;;927591;151;27312;-82
2024/01/31 03:50:45;;;;;;;10.93;8.23;;;10.90;99.90;;;;;;927368;151;27299;-82
2024/01/31 03:53:12;;;;;;;8.90;8.00;;;10.90;99.90;;;;;;927060;151;27453;-81
2024/01/31 03:55:39;;;;;;;10.27;9.07;;;10.80;99.90;;;;;;927730;151;27327;-81
2024/01/31 03:58:05;;;;;;;10.30;9.27;;;10.80;99.90;;;;;;927561;153;27322;-85
2024/01/31 04:00:32;;;;;;;10.13;9.07;;;10.80;99.90;;;;;;927890;151;27260;-85
2024/01/31 04:02:58;;;;;;;10.97;8.97;;;10.80;99.90;;;;;;927578;151;27355;-85
2024/01/31 04:05:25;;;;;;;9.43;8.53;;;10.70;99.90;;;;;;927743;151;27392;-86
2024/01/31 04:07:51;;;;;;;11.17;9.33;;;10.70;99.90;;;;;;927384;151;27282;-83
2024/01/31 04:10:18;;;;;;;9.80;8.80;;;10.70;99.90;;;;;;927814;151;27421;-85
2024/01/31 04:12:45;;;;;;;10.13;9.10;;;10.60;99.90;;;;;;927210;153;27359;-86
2024/01/31 04:15:11;;;;;;;10.70;9.60;;;10.60;99.90;;;;;;927430;150;27423;-86
2024/01/31 04:17:38;;;;;;;10.63;9.53;;;10.60;99.90;;;;;;927718;151;27389;-86
2024/01/31 04:20:05;;;;;;;10.33;9.33;;;10.50;99.90;;;;;;927782;151;27340;-84
2024/01/31 04:22:31;;;;;;;10.10;9.10;;;10.50;99.90;;;;;;927866;151;27456;-82
2024/01/31 04:24:58;;;;;;;9.80;8.80;;;10.50;99.90;;;;;;928133;151;27362;-86
2024/01/31 04:27:24;;;;;;;10.53;9.37;;;10.50;99.90;;;;;;928359;150;27287;-86
2024/01/31 04:29:51;;;;;;;9.50;8.60;;;10.40;99.90;;;;;;927781;148;27350;-84
2024/01/31 04:32:17;;;;;;;11.67;10.57;;;10.40;99.90;;;;;;927740;153;27312;-83
2024/01/31 04:34:44;;;;;;;11.10;10.00;;;10.40;99.90;;;;;;927960;151;27330;-86
2024/01/31 04:37:11;;;;;;;10.00;9.00;;;10.40;99.90;;;;;;927605;151;27510;-85
2024/01/31 04:39:37;;;;;;;9.50;8.60;;;10.30;99.90;;;;;;927369;153;27293;-85
2024/01/31 04:42:04;;;;;;;10.97;9.37;;;10.30;99.90;;;;;;927727;151;27908;-85
2024/01/31 04:44:30;;;;;;;12.40;9.80;;;10.30;99.90;;;;;;927945;151;27351;-82
2024/01/31 04:46:57;;;;;;;11.60;9.70;;;10.20;99.90;;;;;;927521;153;27874;-86
2024/01/31 04:49:23;;;;;;;10.17;9.10;;;10.20;99.90;;;;;;927892;151;27385;-85
2024/01/31 04:51:50;;;;;;;10.87;9.80;;;10.20;99.90;;;;;;927776;151;27251;-88
2024/01/31 04:54:17;;;;;;;10.70;9.50;;;10.10;99.90;;;;;;927541;149;27368;-86
2024/01/31 04:56:43;;;;;;;9.63;8.73;;;10.10;99.90;;;;;;928116;151;27343;-88
2024/01/31 04:59:10;;;;;;;9.07;8.13;;;10.00;99.90;;;;;;927660;151;27351;-88
2024/01/31 05:01:36;;;;;;;10.30;9.20;;;10.00;99.90;;;;;;928059;151;27331;-88
2024/01/31 05:04:03;;;;;;;9.77;8.77;;;9.90;99.90;;;;;;927678;153;27736;-88
2024/01/31 05:06:30;;;;;;;9.97;8.97;;;9.90;99.90;;;;;;927643;151;27440;-85
2024/01/31 05:08:56;;;;;;;9.80;8.80;;;9.90;99.90;;;;;;927780;151;27464;-88
2024/01/31 05:11:23;;;;;;;11.80;9.47;;;9.80;99.90;;;;;;927304;151;27283;-87
2024/01/31 05:13:49;;;;;;;9.03;8.10;;;9.80;99.90;;;;;;927847;151;27287;-88
2024/01/31 05:16:16;;;;;;;10.50;8.63;;;9.70;99.90;;;;;;927602;151;27358;-82
2024/01/31 05:18:43;;;;;;;10.53;8.97;;;9.70;99.90;;;;;;927861;151;27457;-86
2024/01/31 05:21:10;;;;;;;9.93;8.57;;;9.60;99.90;;;;;;927474;151;27377;-86
2024/01/31 05:23:36;;;;;;;10.60;8.60;;;9.60;99.90;;;;;;927393;151;27319;-85
2024/01/31 05:26:02;;;;;;;9.07;8.10;;;9.50;99.90;;;;;;927769;151;27274;-84
2024/01/31 05:28:29;;;;;;;8.10;7.40;;;9.40;99.90;;;;;;927773;151;27353;-85
2024/01/31 05:30:55;;;;;;;9.00;8.10;;;9.40;99.90;;;;;;949097;148;27973;-86
2024/01/31 05:33:22;;;;;;;10.90;8.47;;;9.40;99.90;;;;;;948732;148;27406;-86
2024/01/31 05:35:49;;;;;;;21.17;9.93;;;9.40;99.90;;;;;;949006;151;27256;-85
2024/01/31 05:38:15;;;;;;;7.83;7.13;;;9.40;99.90;;;;;;948634;148;27419;-82
2024/01/31 05:40:44;;;;;;;8.23;7.43;;;9.30;99.90;;;;;;948898;148;27364;-86
2024/01/31 05:43:08;;;;;;;8.23;7.43;;;9.30;99.90;;;;;;948804;148;27309;-86
2024/01/31 05:45:35;;;;;;;8.10;7.30;;;9.30;99.90;;;;;;949170;148;27398;-86
2024/01/31 05:48:02;;;;;;;8.30;7.50;;;9.30;99.90;;;;;;948583;148;27327;-84
2024/01/31 05:50:28;;;;;;;8.00;7.23;;;9.30;99.90;;;;;;949028;149;27368;-85
2024/01/31 05:52:55;;;;;;;8.53;7.63;;;9.20;99.90;;;;;;948892;148;27351;-85
2024/01/31 05:55:21;;;;;;;7.50;6.80;;;9.20;99.90;;;;;;949318;148;27293;-85
2024/01/31 05:57:48;;;;;;;7.63;6.93;;;9.20;99.90;;;;;;948974;148;27344;-83
2024/01/31 06:00:14;;;;;;;7.57;6.67;;;9.10;99.90;;;;;;949145;151;27367;-86
2024/01/31 06:02:41;;;;;;;8.07;7.33;;;9.10;99.90;;;;;;948798;151;27269;-85
2024/01/31 06:05:08;;;;;;;8.50;7.70;;;9.10;99.90;;;;;;948734;148;27319;-86
2024/01/31 06:07:34;;;;;;;7.90;7.10;;;9.10;99.90;;;;;;949162;148;27405;-85
2024/01/31 06:10:01;;;;;;;8.53;7.63;;;9.00;99.90;;;;;;948916;148;27490;-86
2024/01/31 06:12:27;;;;;;;8.83;7.97;;;9.00;99.90;;;;;;948720;151;28867;-85
2024/01/31 06:14:54;;;;;;;76.33;13.37;;;8.90;99.90;;;;;;948935;148;27317;-84
2024/01/31 06:17:21;;;;;;;95.20;15.47;;;8.80;99.90;;;;;;948550;148;27382;-85
2024/01/31 06:19:48;;;;;;;107.67;16.30;;;8.80;99.90;;;;;;949226;151;27363;-83
2024/01/31 06:22:14;;;;;;;136.60;18.00;;;8.70;99.90;;;;;;948836;148;27445;-85
2024/01/31 06:24:40;;;;;;;79.17;13.83;;;8.60;99.90;;;;;;949334;151;27410;-86
2024/01/31 06:27:07;;;;;;;60.77;11.07;;;8.60;99.90;;;;;;948585;148;27303;-86
2024/01/31 06:29:33;;;;;;;67.23;11.43;;;8.50;99.90;;;;;;944377;150;27323;-83
2024/01/31 06:32:00;;;;;;;43.53;7.97;;;8.40;99.90;;;;;;927666;151;27445;-83
2024/01/31 06:34:27;;;;;;;41.17;8.77;;;8.40;99.90;;;;;;927572;151;27298;-83
2024/01/31 06:36:53;;;;;;;19.17;7.33;;;8.30;99.90;;;;;;933263;150;27306;-83
2024/01/31 06:39:20;;;;;;;29.70;8.03;;;8.20;99.90;;;;;;933835;150;27432;-83
2024/01/31 06:41:46;;;;;;;21.03;7.07;;;8.10;99.90;;;;;;933857;151;27347;-82
2024/01/31 06:44:13;;;;;;;15.20;7.57;;;8.00;99.90;;;;;;933602;151;27414;-83
2024/01/31 06:46:40;;;;;;;25.23;7.37;;;7.90;99.90;;;;;;933588;151;27359;-83
2024/01/31 06:49:06;;;;;;;15.73;7.30;;;7.80;99.90;;;;;;934026;151;27428;-83
2024/01/31 06:51:33;;;;;;;15.70;6.20;;;7.80;99.90;;;;;;933549;151;27280;-83
2024/01/31 06:53:59;;;;;;;11.70;6.17;;;7.70;99.90;;;;;;933507;150;27456;-83
2024/01/31 06:56:26;;;;;;;19.87;6.40;;;7.70;99.90;;;;;;933257;151;27972;-83
2024/01/31 06:58:54;;;;;;;9.17;6.30;;;7.70;99.90;;;;;;933495;151;27373;-83
2024/01/31 07:01:19;;;;;;;9.97;6.67;;;7.60;99.90;;;;;;934021;151;27352;-83
2024/01/31 07:03:46;;;;;;;6.23;5.63;;;7.60;99.90;;;;;;933797;151;27499;-83
2024/01/31 07:06:12;;;;;;;26.60;7.80;;;7.60;99.90;;;;;;933693;150;27412;-83
2024/01/31 07:08:39;;;;;;;47.07;10.87;;;7.60;99.90;;;;;;933555;151;27378;-83
2024/01/31 07:11:07;;;;;;;54.50;10.30;;;7.60;99.90;;;;;;933958;150;27315;-83
2024/01/31 07:13:32;;;;;;;41.47;9.37;;;7.60;99.90;;;;;;933242;150;27893;-83
2024/01/31 07:15:59;;;;;;;78.23;14.03;;;7.60;99.90;;;;;;933483;151;27394;-84
2024/01/31 07:18:25;;;;;;;35.77;9.93;;;7.70;99.90;;;;;;933357;151;27442;-86
2024/01/31 07:20:52;;;;;;;36.47;10.13;;;7.70;99.90;;;;;;934033;151;27374;-84
2024/01/31 07:23:18;;;;;;;16.33;9.60;;;7.70;99.90;;;;;;933914;150;27381;-82
2024/01/31 07:25:45;;;;;;;16.10;8.67;;;7.70;99.90;;;;;;934189;151;27487;-84
2024/01/31 07:28:12;;;;;;;9.17;8.27;;;7.70;99.90;;;;;;933572;150;27416;-81
2024/01/31 07:30:38;;;;;;;9.50;8.30;;;7.70;99.90;;;;;;933070;151;27359;-80
2024/01/31 07:33:05;;;;;;;17.33;9.03;;;7.80;99.90;;;;;;932161;151;27385;-81
2024/01/31 07:35:31;;;;;;;11.43;8.87;;;7.80;99.90;;;;;;931947;151;27389;-80
2024/01/31 07:37:58;;;;;;;9.30;8.40;;;7.90;99.90;;;;;;931673;151;27475;-81
2024/01/31 07:40:24;;;;;;;9.43;8.47;;;7.90;99.90;;;;;;931871;151;27401;-82
2024/01/31 07:42:51;;;;;;;8.50;7.73;;;8.00;99.90;;;;;;932138;154;27335;-81
2024/01/31 07:45:18;;;;;;;7.97;7.27;;;8.00;99.90;;;;;;932029;154;27395;-81
2024/01/31 07:47:44;;;;;;;9.40;8.53;;;8.10;99.90;;;;;;931770;154;27374;-81
2024/01/31 07:50:11;;;;;;;29.00;10.50;;;8.10;99.90;;;;;;931213;151;27355;-80
2024/01/31 07:52:37;;;;;;;19.40;9.60;;;8.20;99.90;;;;;;932038;151;27362;-80
2024/01/31 07:55:05;;;;;;;16.73;9.27;;;8.20;99.90;;;;;;931854;154;27525;-84
2024/01/31 07:57:31;;;;;;;11.23;8.87;;;8.30;99.90;;;;;;931740;151;27377;-82
2024/01/31 07:59:57;;;;;;;8.57;7.77;;;8.40;99.90;;;;;;931392;151;27398;-80
2024/01/31 08:02:24;;;;;;;11.87;9.23;;;8.40;99.90;;;;;;931700;151;27459;-80
2024/01/31 08:04:51;;;;;;;11.17;9.97;;;8.50;99.90;;;;;;932049;154;27404;-83
2024/01/31 08:07:17;;;;;;;10.87;9.80;;;8.60;99.90;;;;;;932002;151;27385;-81
2024/01/31 08:09:44;;;;;;;10.53;9.53;;;8.70;99.90;;;;;;932102;151;28426;-80
2024/01/31 08:12:10;;;;;;;9.90;9.00;;;8.80;99.90;;;;;;931953;151;27322;-81
2024/01/31 08:14:37;;;;;;;8.43;7.67;;;8.80;99.90;;;;;;932119;151;27870;-80
2024/01/31 08:17:03;;;;;;;7.90;7.20;;;9.00;99.90;;;;;;931692;154;27458;-85
2024/01/31 08:19:30;;;;;;;7.70;7.00;;;9.10;99.90;;;;;;930955;151;27377;-80
2024/01/31 08:21:56;;;;;;;7.83;7.13;;;9.30;99.90;;;;;;931656;151;27283;-80
2024/01/31 08:24:23;;;;;;;7.17;6.57;;;9.70;99.90;;;;;;931338;151;27322;-80
2024/01/31 08:26:50;;;;;;;6.80;6.20;;;10.10;99.90;;;;;;932278;151;27331;-83
2024/01/31 08:29:16;;;;;;;7.00;6.40;;;10.60;99.90;;;;;;932229;151;27394;-80
2024/01/31 08:31:43;;;;;;;7.30;6.70;;;11.10;99.90;;;;;;929437;150;27957;-80
2024/01/31 08:34:12;;;;;;;9.17;8.23;;;11.60;99.90;;;;;;927663;151;27464;-81
2024/01/31 08:36:39;;;;;;;8.50;7.70;;;12.10;99.90;;;;;;928044;151;27390;-80
2024/01/31 08:39:06;;;;;;;9.03;8.05;;;12.50;99.90;;;;;;927249;152;27340;-81
2024/01/31 08:41:32;;;;;;;8.28;7.12;;;12.80;99.90;;;;;;927652;152;27303;-80
2024/01/31 08:43:58;;;;;;;8.55;7.75;;;13.20;99.90;;;;;;927765;152;27281;-84
2024/01/31 08:46:26;;;;;;;9.10;7.45;;;13.40;99.90;;;;;;928201;151;27479;-80
2024/01/31 08:48:51;;;;;;;7.78;6.92;;;13.70;99.90;;;;;;927248;151;28315;-82
2024/01/31 08:51:18;;;;;;;7.50;6.72;;;14.00;99.90;;;;;;927135;152;27328;-82
2024/01/31 08:53:45;;;;;;;7.80;7.00;;;14.20;99.90;;;;;;927369;152;27355;-82
2024/01/31 08:56:11;;;;;;;8.73;7.87;;;14.50;99.90;;;;;;927278;151;27431;-83
2024/01/31 08:58:38;;;;;;;8.28;7.47;;;14.70;99.90;;;;;;927651;151;27410;-82
2024/01/31 09:01:05;;;;;;;7.97;7.17;;;14.80;99.40;;;;;;927210;151;27423;-82
2024/01/31 09:03:31;;;;;;;8.55;7.75;;;14.80;97.90;;;;;;927221;152;27430;-82
2024/01/31 09:05:58;;;;;;;8.08;7.35;;;14.80;97.00;;;;;;927647;151;27445;-82
2024/01/31 09:08:24;;;;;;;8.08;7.37;;;14.80;96.10;;;;;;927654;152;27477;-82
2024/01/31 09:10:51;;;;;;;8.78;7.97;;;14.70;95.40;;;;;;927631;151;27417;-81
2024/01/31 09:13:17;;;;;;;8.15;7.37;;;14.60;94.60;;;;;;927463;151;27884;-82
2024/01/31 09:15:44;;;;;;;9.83;8.93;;;14.40;94.10;;;;;;927535;152;27338;-81
2024/01/31 09:18:10;;;;;;;9.20;8.40;;;14.30;94.20;;;;;;926905;151;27476;-83
2024/01/31 09:20:38;;;;;;;8.98;8.18;;;14.10;94.10;;;;;;928000;152;27924;-81
2024/01/31 09:23:04;;;;;;;9.00;8.15;;;14.00;94.10;;;;;;927205;152;27438;-81
2024/01/31 09:25:30;;;;;;;9.03;8.23;;;13.80;94.20;;;;;;927990;151;27343;-81
2024/01/31 09:27:57;;;;;;;9.33;8.48;;;13.60;94.70;;;;;;927850;152;27448;-81
2024/01/31 09:30:23;;;;;;;9.25;8.18;;;13.50;95.30;;;;;;927627;151;27487;-81
2024/01/31 09:32:50;;;;;;;10.18;9.28;;;13.40;95.80;;;;;;930599;151;27370;-81
2024/01/31 09:35:17;;;;;;;8.80;8.00;;;13.30;96.10;;;;;;931688;151;27289;-81
2024/01/31 09:37:43;;;;;;;8.70;7.90;;;13.20;96.40;;;;;;931725;151;27288;-81
2024/01/31 09:40:14;;;;;;;8.63;7.83;;;13.10;96.80;;;;;;932221;151;27405;-81
2024/01/31 09:42:36;;;;;;;9.15;8.33;;;13.10;97.30;;;;;;931278;151;27350;-80
2024/01/31 09:45:03;;;;;;;8.30;7.55;;;13.10;97.90;;;;;;931558;151;27333;-81
2024/01/31 09:47:30;;;;;;;8.23;7.53;;;13.10;98.50;;;;;;931730;151;27735;-81
2024/01/31 09:49:56;;;;;;;7.37;6.67;;;13.10;98.70;;;;;;931704;151;27393;-79
2024/01/31 09:52:28;;;;;;;7.53;6.83;;;13.10;98.60;;;;;;930892;151;27386;-78
2024/01/31 09:54:52;;;;;;;8.03;7.33;;;13.10;99.20;;;;;;931075;151;27351;-79
2024/01/31 09:57:19;;;;;;;8.43;7.53;;;13.20;99.70;;;;;;931275;151;27858;-79
2024/01/31 09:59:45;;;;;;;7.60;6.87;;;13.20;99.80;;;;;;931817;151;27330;-81
2024/01/31 10:02:12;;;;;;;8.20;7.40;;;13.30;99.90;;;;;;930844;151;28050;-83
2024/01/31 10:04:39;;;;;;;7.72;7.12;;;13.40;99.90;;;;;;930378;151;27420;-83
2024/01/31 10:07:05;;;;;;;8.25;7.45;;;13.40;99.80;;;;;;932053;151;27384;-82
2024/01/31 10:09:32;;;;;;;7.40;6.70;;;13.50;99.90;;;;;;931853;151;27407;-82
2024/01/31 10:11:58;;;;;;;7.65;6.97;;;13.60;99.90;;;;;;931800;151;27386;-82
2024/01/31 10:14:25;;;;;;;7.22;6.62;;;13.70;99.60;;;;;;931268;151;27370;-83
2024/01/31 10:16:52;;;;;;;7.40;6.70;;;13.70;99.20;;;;;;931356;151;27381;-83
2024/01/31 10:19:18;;;;;;;6.55;6.05;;;13.80;99.20;;;;;;931394;151;27721;-82
2024/01/31 10:21:45;;;;;;;7.83;7.12;;;13.90;99.40;;;;;;931796;151;27367;-82
2024/01/31 10:24:11;;;;;;;7.80;7.03;;;13.90;99.40;;;;;;931554;151;27386;-84
2024/01/31 10:26:38;;;;;;;7.03;6.42;;;14.10;99.30;;;;;;930977;151;27356;-83
2024/01/31 10:29:04;;;;;;;7.65;6.92;;;14.20;98.90;;;;;;931731;151;27354;-82
2024/01/31 10:31:31;;;;;;;6.37;5.78;;;14.20;98.20;;;;;;932007;151;27328;-83
2024/01/31 10:33:58;;;;;;;7.28;6.30;;;14.30;97.60;;;;;;931862;151;27514;-82
2024/01/31 10:36:24;;;;;;;6.78;6.03;;;14.40;97.30;;;;;;931729;151;27353;-82
2024/01/31 10:38:51;;;;;;;7.12;6.22;;;14.50;97.20;;;;;;931519;151;27331;-83
2024/01/31 10:41:19;;;;;;;7.75;6.30;;;14.60;96.80;;;;;;931125;151;27277;-82
2024/01/31 10:43:44;;;;;;;8.40;7.58;;;14.70;96.30;;;;;;931942;151;27980;-83
2024/01/31 10:46:11;;;;;;;7.37;6.67;;;14.80;95.90;;;;;;931736;151;27383;-84
2024/01/31 10:48:38;;;;;;;6.90;6.28;;;14.90;94.90;;;;;;931453;151;27419;-84
2024/01/31 10:51:04;;;;;;;6.83;6.17;;;15.00;94.40;;;;;;931051;151;27335;-84
2024/01/31 10:53:30;;;;;;;6.47;5.87;;;15.00;94.00;;;;;;931523;151;27739;-83
2024/01/31 10:55:57;;;;;;;6.15;5.42;;;15.00;93.80;;;;;;931642;151;27367;-84
2024/01/31 10:58:24;;;;;;;6.85;6.25;;;15.00;93.50;;;;;;931034;151;27363;-81
2024/01/31 11:00:50;;;;;;;6.22;5.67;;;15.00;93.10;;;;;;931406;151;27373;-81
2024/01/31 11:03:17;;;;;;;7.20;6.50;;;15.00;93.10;;;;;;931446;151;27366;-81
2024/01/31 11:05:43;;;;;;;6.28;5.67;;;15.10;93.10;;;;;;931694;151;27479;-81
2024/01/31 11:08:19;;;;;;;6.33;5.35;;;15.10;92.90;;;;;;930909;151;27323;-81
2024/01/31 11:10:45;;;;;;;6.67;5.97;;;15.10;93.00;;;;;;931665;151;27428;-81
2024/01/31 11:13:12;;;;;;;6.17;5.58;;;15.20;93.20;;;;;;932146;151;27460;-81
2024/01/31 11:15:39;;;;;;;5.67;5.17;;;15.30;93.10;;;;;;931397;151;27882;-80
2024/01/31 11:18:11;;;;;;;6.25;5.00;;;15.30;92.60;;;;;;931066;151;27443;-81
2024/01/31 11:20:35;;;;;;;6.03;5.53;;;15.40;92.20;;;;;;930872;151;27469;-81
2024/01/31 11:23:03;;;;;;;6.03;5.50;;;15.40;91.80;;;;;;931515;151;27957;-81
2024/01/31 11:25:28;;;;;;;4.12;3.72;;;15.50;91.60;;;;;;931369;151;27379;-80
2024/01/31 11:27:54;;;;;;;3.50;3.20;;;15.50;90.80;;;;;;931949;151;27323;-81
2024/01/31 11:30:22;;;;;;;3.70;2.77;;;15.50;89.50;;;;;;931770;151;27308;-82
2024/01/31 11:32:47;;;;;;;3.05;2.85;;;15.50;87.90;;;;;;931155;151;27350;-81
2024/01/31 11:35:14;;;;;;;15.05;4.70;;;15.40;86.80;;;;;;927843;151;27383;-81
2024/01/31 11:37:41;;;;;;;2.95;2.60;;;15.40;86.60;;;;;;927402;152;27371;-81
2024/01/31 11:40:07;;;;;;;3.12;2.80;;;15.40;86.40;;;;;;927054;151;27313;-81
2024/01/31 11:42:34;;;;;;;2.80;2.60;;;15.40;85.90;;;;;;927675;152;27417;-81
2024/01/31 11:45:00;;;;;;;2.75;2.52;;;15.40;85.60;;;;;;928068;151;27449;-80
2024/01/31 11:47:27;;;;;;;3.83;2.60;;;15.40;84.80;;;;;;927401;152;28385;-81
2024/01/31 11:49:54;;;;;;;3.12;2.22;;;15.40;84.20;;;;;;927619;151;27333;-81
2024/01/31 11:52:20;;;;;;;2.45;1.80;;;15.40;83.60;;;;;;926137;152;27416;-83
2024/01/31 11:54:47;;;;;;;2.25;2.00;;;15.40;82.00;;;;;;927968;151;27392;-83
2024/01/31 11:57:13;;;;;;;2.25;2.00;;;15.40;81.00;;;;;;928082;151;27384;-81
2024/01/31 11:59:40;;;;;;;1.95;1.75;;;15.30;80.30;;;;;;927090;152;27347;-81
2024/01/31 12:02:07;;;;;;;2.05;1.85;;;15.30;80.10;;;;;;927970;151;27375;-81
2024/01/31 12:04:33;;;;;;;1.82;1.72;;;15.30;80.00;;;;;;928126;151;27320;-81
2024/01/31 12:07:03;;;;;;;1.72;1.62;;;15.20;79.60;;;;;;927768;152;27466;-81
2024/01/31 12:09:29;;;;;;;1.67;1.57;;;15.20;79.50;;;;;;926878;152;27776;-78
2024/01/31 12:11:56;;;;;;;1.62;1.52;;;15.20;79.20;;;;;;927345;152;27329;-78
2024/01/31 12:14:22;;;;;;;2.50;1.70;;;15.20;79.00;;;;;;927739;151;27389;-82
2024/01/31 12:16:49;;;;;;;2.75;2.00;;;15.20;78.70;;;;;;928202;152;27387;-78
2024/01/31 12:19:18;;;;;;;1.37;1.27;;;15.20;78.70;;;;;;927385;152;27442;-84
2024/01/31 12:21:45;;;;;;;1.92;1.80;;;15.10;78.20;;;;;;927315;151;27294;-84
2024/01/31 12:24:11;;;;;;;1.57;1.47;;;15.10;78.20;;;;;;927843;152;27376;-81
2024/01/31 12:26:38;;;;;;;2.17;1.62;;;15.10;77.80;;;;;;927330;151;27519;-83
2024/01/31 12:29:04;;;;;;;1.65;1.40;;;15.10;77.10;;;;;;927584;151;27403;-84
2024/01/31 12:31:31;;;;;;;1.60;1.50;;;15.10;76.90;;;;;;928075;151;27328;-84
2024/01/31 12:33:59;;;;;;;2.47;1.60;;;15.10;76.90;;;;;;928669;150;27497;-82
2024/01/31 12:36:24;;;;;;;1.67;1.57;;;15.10;76.80;;;;;;931468;151;27474;-84
2024/01/31 12:38:51;;;;;;;1.70;1.60;;;15.10;76.50;;;;;;932126;153;27376;-83
2024/01/31 12:41:17;;;;;;;1.72;1.60;;;15.10;76.50;;;;;;931818;154;27412;-84